Time;durP1;ratioP1;P1;durP2;ratioP2;P2;SDS_P1;SDS_P2;PMS_P1;PMS_P2;Temp;Humidity;BMP_temperature;BMP_pressure;BME280_temperature;BME280_humidity;BME280_pressure;Samples;Min_cycle;Max_cycle;Signal;HPM_P1;HPM_P2
2023/10/30 00:00:47;;;;;;;3.90;1.30;;;;;;;19.29;68.83;99268.78;5087435;28;20189;-64
2023/10/30 00:03:14;;;;;;;7.67;2.00;;;;;;;19.31;68.73;99266.34;5089282;28;20960;-65
2023/10/30 00:05:39;;;;;;;5.90;1.43;;;;;;;19.31;68.96;99269.19;5087803;28;20420;-64
2023/10/30 00:08:06;;;;;;;5.63;1.80;;;;;;;19.28;68.92;99280.66;5087973;28;20515;-63
2023/10/30 00:10:31;;;;;;;6.13;1.57;;;;;;;19.28;69.09;99281.47;5095868;28;20182;-64
2023/10/30 00:12:56;;;;;;;7.40;1.67;;;;;;;19.29;69.16;99288.00;5108603;28;20434;-64
2023/10/30 00:15:23;;;;;;;4.53;1.87;;;;;;;19.28;69.09;99287.19;5100293;28;20186;-59
2023/10/30 00:17:48;;;;;;;9.10;2.20;;;;;;;19.28;69.20;99283.50;5087759;28;20606;-58
2023/10/30 00:20:14;;;;;;;5.23;1.43;;;;;;;19.29;69.00;99285.13;5088409;28;20456;-60
2023/10/30 00:22:39;;;;;;;7.37;1.97;;;;;;;19.31;68.83;99294.16;5092519;28;20225;-59
2023/10/30 00:25:05;;;;;;;6.47;1.40;;;;;;;19.29;68.97;99285.13;5088312;28;20599;-59
2023/10/30 00:27:31;;;;;;;4.90;1.47;;;;;;;19.29;68.87;99293.72;5096431;28;20209;-59
2023/10/30 00:29:56;;;;;;;3.20;1.37;;;;;;;19.29;69.14;99303.13;5084821;28;20423;-60
2023/10/30 00:32:22;;;;;;;7.00;1.50;;;;;;;19.30;68.84;99301.91;5084328;28;20189;-59
2023/10/30 00:34:48;;;;;;;6.97;1.83;;;;;;;19.29;69.05;99308.88;5086718;28;20563;-59
2023/10/30 00:37:13;;;;;;;7.23;2.00;;;;;;;19.30;69.03;99287.59;5086868;28;20159;-59
2023/10/30 00:39:38;;;;;;;5.70;1.60;;;;;;;19.30;69.34;99306.81;5089419;28;20208;-59
2023/10/30 00:42:04;;;;;;;5.20;1.77;;;;;;;19.32;68.67;99302.31;5088671;28;20213;-59
2023/10/30 00:44:30;;;;;;;6.30;1.50;;;;;;;19.29;69.05;99296.59;5108906;28;20166;-59
2023/10/30 00:46:56;;;;;;;6.40;1.40;;;;;;;19.31;68.75;99299.88;5108417;28;20431;-59
2023/10/30 00:49:21;;;;;;;5.80;2.23;;;;;;;19.28;68.86;99300.69;5105087;28;20178;-59
2023/10/30 00:51:46;;;;;;;8.30;1.70;;;;;;;19.27;68.95;99311.31;5109123;28;20205;-58
2023/10/30 00:54:12;;;;;;;3.83;1.40;;;;;;;19.27;69.00;99314.16;5108984;28;20260;-59
2023/10/30 00:56:37;;;;;;;4.67;1.50;;;;;;;19.29;69.01;99314.59;5108273;28;20181;-59
2023/10/30 00:59:03;;;;;;;4.43;1.53;;;;;;;19.27;68.86;99308.44;5073387;28;20179;-60
2023/10/30 01:01:28;;;;;;;7.33;2.00;;;;;;;19.28;69.00;99301.50;5088506;28;20190;-59
2023/10/30 01:03:54;;;;;;;3.93;1.10;;;;;;;19.28;69.04;99312.13;5088509;28;20626;-58
2023/10/30 01:06:19;;;;;;;4.37;1.53;;;;;;;19.31;68.74;99311.31;5090728;28;20658;-59
2023/10/30 01:08:45;;;;;;;8.00;2.07;;;;;;;19.29;69.01;99302.31;5088544;28;20190;-59
2023/10/30 01:11:10;;;;;;;6.50;1.47;;;;;;;19.26;68.89;99309.66;5088501;28;20198;-59
2023/10/30 01:13:36;;;;;;;4.50;1.13;;;;;;;19.28;68.74;99300.69;5090141;28;20186;-59
2023/10/30 01:16:02;;;;;;;5.47;2.00;;;;;;;19.26;69.11;99298.22;5087543;28;20178;-59
2023/10/30 01:18:27;;;;;;;5.40;1.60;;;;;;;19.26;68.94;99301.09;5094608;28;20446;-60
2023/10/30 01:20:53;;;;;;;4.27;1.50;;;;;;;19.26;68.98;99297.44;5107286;28;20558;-59
2023/10/30 01:23:18;;;;;;;5.97;1.40;;;;;;;19.26;69.00;99294.56;5105057;28;20186;-59
2023/10/30 01:25:47;;;;;;;4.40;1.40;;;;;;;19.27;68.75;99304.78;5070961;28;20185;-59
2023/10/30 01:28:13;;;;;;;4.97;2.10;;;;;;;19.27;68.75;99296.19;5088435;28;20740;-59
2023/10/30 01:30:39;;;;;;;6.40;1.50;;;;;;;19.25;69.02;99290.03;5086767;28;20420;-59
2023/10/30 01:33:04;;;;;;;5.37;1.47;;;;;;;19.26;69.19;99283.91;5090481;28;20181;-59
2023/10/30 01:35:29;;;;;;;3.80;1.37;;;;;;;19.28;68.56;99283.50;5107326;28;20173;-59
2023/10/30 01:37:55;;;;;;;9.63;1.90;;;;;;;19.27;68.76;99279.81;5108387;28;20542;-59
2023/10/30 01:40:21;;;;;;;4.30;1.23;;;;;;;19.26;68.88;99268.81;5108724;28;20625;-59
2023/10/30 01:42:46;;;;;;;3.87;1.37;;;;;;;19.28;68.78;99278.63;5099139;28;20202;-59
2023/10/30 01:45:12;;;;;;;6.23;1.80;;;;;;;19.25;68.92;99276.56;5099792;28;20208;-58
2023/10/30 01:47:37;;;;;;;5.60;1.40;;;;;;;19.27;68.90;99290.47;5107724;28;20243;-59
2023/10/30 01:50:04;;;;;;;5.37;1.70;;;;;;;19.27;68.73;99290.47;5112318;28;20161;-59
2023/10/30 01:52:29;;;;;;;3.30;1.20;;;;;;;19.24;69.17;99286.38;5101253;28;20185;-58
2023/10/30 01:54:55;;;;;;;4.67;1.70;;;;;;;19.25;68.95;99302.31;5094062;28;20420;-58
2023/10/30 01:57:22;;;;;;;7.53;2.00;;;;;;;19.25;68.85;99290.03;5106045;28;20201;-59
2023/10/30 01:59:50;;;;;;;3.40;1.10;;;;;;;19.27;68.97;99299.06;5111952;28;20162;-59
2023/10/30 02:02:19;;;;;;;3.90;1.43;;;;;;;19.26;69.32;99300.28;5104987;28;20852;-64
2023/10/30 02:04:45;;;;;;;5.37;1.47;;;;;;;19.25;68.96;99290.88;5093975;28;20428;-65
2023/10/30 02:07:11;;;;;;;5.30;1.60;;;;;;;19.26;68.58;99303.16;5091545;28;20423;-64
2023/10/30 02:09:37;;;;;;;8.50;1.57;;;;;;;19.25;69.16;99296.59;5090740;28;20166;-64
2023/10/30 02:12:02;;;;;;;5.50;1.70;;;;;;;19.26;68.69;99280.25;5083272;28;20963;-63
2023/10/30 02:14:28;;;;;;;2.50;0.90;;;;;;;19.26;68.68;99260.22;5110052;28;20704;-64
2023/10/30 02:16:53;;;;;;;2.93;1.20;;;;;;;19.25;68.72;99262.25;5105824;28;20227;-64
2023/10/30 02:19:23;;;;;;;3.07;1.43;;;;;;;19.24;69.18;99266.34;5091235;28;20556;-63
2023/10/30 02:21:50;;;;;;;3.17;1.27;;;;;;;19.24;68.80;99243.47;5073321;28;20205;-64
2023/10/30 02:24:15;;;;;;;4.00;1.40;;;;;;;19.27;68.57;99254.06;5085822;28;21017;-64
2023/10/30 02:26:41;;;;;;;6.10;1.40;;;;;;;19.25;69.17;99272.88;5089780;28;20416;-64
2023/10/30 02:29:06;;;;;;;5.83;1.00;;;;;;;19.24;68.71;99219.75;5084558;28;20233;-64
2023/10/30 02:31:32;;;;;;;2.93;1.17;;;;;;;19.25;68.80;99244.25;5070758;28;20164;-65
2023/10/30 02:34:00;;;;;;;5.40;1.57;;;;;;;19.24;68.83;99219.75;5073713;28;20185;-64
2023/10/30 02:36:26;;;;;;;4.00;1.20;;;;;;;19.23;68.86;99236.09;5073314;28;20253;-64
2023/10/30 02:38:52;;;;;;;2.97;1.27;;;;;;;19.23;68.90;99218.13;5070416;28;20406;-65
2023/10/30 02:41:18;;;;;;;2.90;1.20;;;;;;;19.22;68.75;99234.44;5076612;28;20205;-64
2023/10/30 02:43:44;;;;;;;4.10;2.00;;;;;;;19.24;69.12;99243.47;5092588;28;20602;-64
2023/10/30 02:46:10;;;;;;;4.57;1.40;;;;;;;19.26;68.94;99235.28;5071443;28;20412;-65
2023/10/30 02:48:35;;;;;;;5.07;1.23;;;;;;;19.23;68.80;99230.38;5072974;28;20182;-64
2023/10/30 02:51:00;;;;;;;2.73;1.23;;;;;;;19.21;68.68;99204.19;5082689;28;20178;-64
2023/10/30 02:53:26;;;;;;;4.10;1.53;;;;;;;19.22;68.81;99214.41;5086839;28;20182;-64
2023/10/30 02:55:51;;;;;;;6.43;1.30;;;;;;;19.23;69.34;99209.53;5104298;28;20185;-64
2023/10/30 02:58:17;;;;;;;4.87;1.00;;;;;;;19.23;68.74;99207.50;5110698;28;20223;-63
2023/10/30 03:00:42;;;;;;;4.00;1.60;;;;;;;19.22;68.94;99223.00;5110687;28;20544;-64
2023/10/30 03:03:09;;;;;;;4.30;1.43;;;;;;;19.23;68.96;99206.66;5081993;28;20191;-64
2023/10/30 03:05:35;;;;;;;4.57;1.50;;;;;;;19.24;68.71;99206.25;5069619;28;20179;-59
2023/10/30 03:08:01;;;;;;;5.70;1.53;;;;;;;19.22;68.63;99197.25;5071402;28;20444;-59
2023/10/30 03:10:27;;;;;;;3.50;0.97;;;;;;;19.22;68.63;99205.84;5068032;28;20175;-60
2023/10/30 03:12:52;;;;;;;2.63;1.10;;;;;;;19.23;68.63;99213.22;5068114;28;20421;-59
2023/10/30 03:15:18;;;;;;;3.60;1.60;;;;;;;19.23;68.59;99212.38;5070495;28;20183;-59
2023/10/30 03:17:43;;;;;;;3.20;1.00;;;;;;;19.22;68.74;99211.56;5068194;28;20221;-59
2023/10/30 03:20:09;;;;;;;3.77;1.30;;;;;;;19.20;68.83;99204.59;5067234;28;20226;-60
2023/10/30 03:22:34;;;;;;;3.20;1.13;;;;;;;19.20;69.01;99196.84;5067826;28;20202;-60
2023/10/30 03:25:00;;;;;;;3.20;1.10;;;;;;;19.22;69.63;99188.66;5070676;28;20186;-59
2023/10/30 03:27:25;;;;;;;2.70;1.10;;;;;;;19.21;68.72;99181.28;5069425;28;20186;-59
2023/10/30 03:29:51;;;;;;;2.80;1.47;;;;;;;19.21;68.66;99189.88;5068235;28;20322;-59
2023/10/30 03:32:16;;;;;;;4.20;1.10;;;;;;;19.19;68.63;99166.59;5070396;28;20243;-59
2023/10/30 03:34:41;;;;;;;3.10;1.10;;;;;;;19.20;68.75;99185.38;5076853;28;20182;-58
2023/10/30 03:37:07;;;;;;;5.77;1.60;;;;;;;19.24;68.61;99185.41;5089013;28;20536;-58
2023/10/30 03:39:33;;;;;;;2.83;1.23;;;;;;;19.20;69.02;99188.25;5071656;28;20241;-59
2023/10/30 03:41:58;;;;;;;6.40;1.63;;;;;;;19.20;68.75;99182.53;5082729;28;20955;-59
2023/10/30 03:44:26;;;;;;;5.23;1.43;;;;;;;19.19;68.75;99177.22;5083659;28;20657;-59
2023/10/30 03:46:52;;;;;;;4.40;1.20;;;;;;;19.18;68.82;99185.00;5089341;28;20244;-59
2023/10/30 03:49:17;;;;;;;3.17;1.20;;;;;;;19.20;68.60;99207.44;5088185;28;20432;-58
2023/10/30 03:51:43;;;;;;;5.57;1.43;;;;;;;19.20;68.65;99191.09;5089487;28;20477;-59
2023/10/30 03:54:08;;;;;;;3.90;1.77;;;;;;;19.20;68.67;99202.56;5076686;28;20282;-59
2023/10/30 03:56:34;;;;;;;3.67;1.20;;;;;;;19.20;68.69;99201.72;5093774;28;20661;-59
2023/10/30 03:58:59;;;;;;;5.67;1.60;;;;;;;19.19;68.90;99177.22;5072919;28;20541;-59
2023/10/30 04:01:25;;;;;;;4.43;1.30;;;;;;;19.19;68.78;99189.47;5087961;28;20198;-59
2023/10/30 04:03:51;;;;;;;3.40;1.07;;;;;;;19.18;68.79;99182.13;5088624;28;20171;-59
2023/10/30 04:06:16;;;;;;;3.00;1.10;;;;;;;19.17;68.94;99168.22;5071317;28;20187;-59
2023/10/30 04:08:42;;;;;;;2.87;1.00;;;;;;;19.17;68.98;99174.75;5073227;28;20757;-59
2023/10/30 04:11:11;;;;;;;2.77;1.00;;;;;;;19.18;68.67;99181.31;5080651;28;20202;-59
2023/10/30 04:13:36;;;;;;;2.70;1.10;;;;;;;19.20;68.74;99182.53;5067363;28;20163;-59
2023/10/30 04:16:03;;;;;;;3.77;1.00;;;;;;;19.18;68.68;99173.53;5067616;28;20783;-63
2023/10/30 04:18:28;;;;;;;3.93;1.10;;;;;;;19.16;68.85;99173.13;5069355;28;20206;-64
2023/10/30 04:20:53;;;;;;;4.00;1.07;;;;;;;19.18;68.79;99182.13;5083581;28;20480;-64
2023/10/30 04:23:19;;;;;;;3.30;0.90;;;;;;;19.18;68.75;99182.13;5108927;28;20215;-64
2023/10/30 04:25:44;;;;;;;4.60;1.20;;;;;;;19.18;68.69;99175.59;5106442;28;20256;-64
2023/10/30 04:28:10;;;;;;;3.10;0.90;;;;;;;19.17;68.89;99171.09;5097960;28;20177;-65
2023/10/30 04:30:35;;;;;;;3.20;0.97;;;;;;;19.18;68.78;99178.44;5109133;28;20169;-64
2023/10/30 04:33:01;;;;;;;3.70;1.30;;;;;;;19.18;68.71;99169.84;5099073;28;20177;-64
2023/10/30 04:35:27;;;;;;;4.33;1.00;;;;;;;19.18;68.79;99175.59;5092258;28;20181;-64
2023/10/30 04:37:53;;;;;;;2.73;1.10;;;;;;;19.18;68.79;99181.31;5109334;28;20467;-64
2023/10/30 04:40:18;;;;;;;3.13;1.10;;;;;;;19.19;68.81;99177.22;5107302;28;20162;-64
2023/10/30 04:42:44;;;;;;;2.83;1.10;;;;;;;19.19;68.77;99178.03;5091002;28;20459;-64
2023/10/30 04:45:09;;;;;;;5.90;1.27;;;;;;;19.19;68.71;99168.63;5088619;28;20182;-64
2023/10/30 04:47:35;;;;;;;5.20;1.00;;;;;;;19.17;68.59;99166.16;5098654;28;20209;-64
2023/10/30 04:50:00;;;;;;;3.67;1.20;;;;;;;19.19;68.58;99155.16;5091190;28;20170;-64
2023/10/30 04:52:26;;;;;;;2.30;0.97;;;;;;;19.18;68.68;99156.38;5090987;28;20159;-63
2023/10/30 04:54:51;;;;;;;1.70;0.90;;;;;;;19.17;68.89;99136.75;5114293;28;20169;-63
2023/10/30 04:57:16;;;;;;;2.27;1.00;;;;;;;19.16;68.88;99158.81;5097536;28;20243;-64
2023/10/30 04:59:42;;;;;;;4.93;1.13;;;;;;;19.17;68.67;99137.56;5088179;28;20645;-63
2023/10/30 05:02:07;;;;;;;2.60;0.80;;;;;;;19.18;69.05;99150.66;5087062;28;20333;-63
2023/10/30 05:04:33;;;;;;;2.57;1.00;;;;;;;19.18;68.58;99142.06;5087228;28;20242;-63
2023/10/30 05:06:59;;;;;;;2.73;1.00;;;;;;;19.18;68.86;99124.91;5089433;28;20636;-64
2023/10/30 05:09:24;;;;;;;3.43;1.00;;;;;;;19.17;69.10;99122.47;5086588;28;20225;-64
2023/10/30 05:11:49;;;;;;;3.97;1.50;;;;;;;19.20;68.53;99165.34;5088173;28;20202;-64
2023/10/30 05:14:15;;;;;;;5.07;1.10;;;;;;;19.19;68.58;99172.31;5089929;28;20193;-64
2023/10/30 05:16:41;;;;;;;3.60;0.90;;;;;;;19.17;68.82;99136.75;5104906;28;20175;-65
2023/10/30 05:19:06;;;;;;;2.37;0.90;;;;;;;19.18;68.87;99146.97;5108955;28;20158;-64
2023/10/30 05:21:32;;;;;;;2.80;1.13;;;;;;;19.19;68.75;99137.16;5112868;28;20197;-64
2023/10/30 05:23:57;;;;;;;2.93;1.10;;;;;;;19.18;68.57;99135.53;5105250;28;20174;-59
2023/10/30 05:26:22;;;;;;;2.93;1.00;;;;;;;19.17;68.65;99123.25;5094653;28;20182;-59
2023/10/30 05:28:48;;;;;;;4.90;0.90;;;;;;;19.15;69.77;99122.88;5092460;28;20170;-59
2023/10/30 05:31:13;;;;;;;2.07;1.10;;;;;;;19.18;68.57;99130.63;5094896;28;20170;-59
2023/10/30 05:33:39;;;;;;;4.47;0.90;;;;;;;19.18;68.82;99121.22;5106537;28;20627;-59
2023/10/30 05:36:04;;;;;;;4.77;1.40;;;;;;;19.19;68.65;99126.53;5112240;28;20207;-59
2023/10/30 05:38:30;;;;;;;2.70;1.20;;;;;;;19.17;68.89;99140.41;5103178;28;20182;-59
2023/10/30 05:40:55;;;;;;;3.90;1.07;;;;;;;19.17;68.70;99146.13;5099824;28;20205;-59
2023/10/30 05:43:21;;;;;;;2.90;1.20;;;;;;;19.17;68.99;99145.34;5109411;28;20630;-59
2023/10/30 05:45:50;;;;;;;3.33;1.20;;;;;;;19.18;68.75;99129.81;5093915;28;20590;-59
2023/10/30 05:48:16;;;;;;;2.50;1.10;;;;;;;19.17;68.87;99128.97;5091952;28;20159;-59
2023/10/30 05:50:41;;;;;;;2.23;0.90;;;;;;;19.16;69.24;99133.06;5093879;28;20439;-59
2023/10/30 05:53:07;;;;;;;3.73;1.20;;;;;;;19.15;69.05;99128.59;5098636;28;20667;-59
2023/10/30 05:55:33;;;;;;;1.33;0.53;;;;;;;19.18;68.65;99129.81;5123081;27;20640;-59
2023/10/30 05:57:58;;;;;;;2.27;0.80;;;;;;;19.18;69.09;99130.63;5130966;27;20302;-59
2023/10/30 06:00:24;;;;;;;2.63;1.03;;;;;;;19.17;68.75;99131.84;5098208;27;20593;-59
2023/10/30 06:02:51;;;;;;;2.77;1.00;;;;;;;19.17;68.89;99123.25;5099497;28;20215;-59
2023/10/30 06:05:16;;;;;;;3.20;1.10;;;;;;;19.17;68.83;99140.41;5110277;28;20536;-59
2023/10/30 06:07:41;;;;;;;3.60;1.20;;;;;;;19.18;68.75;99141.25;5095178;28;20440;-59
2023/10/30 06:10:10;;;;;;;2.97;1.00;;;;;;;19.16;69.00;99130.22;5089605;28;20174;-60
2023/10/30 06:12:39;;;;;;;3.83;1.20;;;;;;;19.18;68.98;99113.47;5093926;28;20189;-58
2023/10/30 06:15:05;;;;;;;2.13;0.90;;;;;;;19.17;68.72;99100.38;5093853;28;20427;-59
2023/10/30 06:17:31;;;;;;;1.90;0.77;;;;;;;19.17;68.89;99116.72;5090502;28;20435;-59
2023/10/30 06:19:56;;;;;;;2.70;1.00;;;;;;;19.17;68.78;99125.31;5093210;28;20464;-59
2023/10/30 06:22:22;;;;;;;3.00;1.17;;;;;;;19.16;69.23;99120.84;5092149;28;20477;-60
2023/10/30 06:24:47;;;;;;;3.10;1.00;;;;;;;19.18;68.72;99119.19;5111673;28;20185;-59
2023/10/30 06:27:13;;;;;;;2.63;0.80;;;;;;;19.17;69.14;99114.66;5111278;28;20260;-59
2023/10/30 06:29:38;;;;;;;2.47;0.90;;;;;;;19.19;68.83;99108.53;5094092;28;20195;-58
2023/10/30 06:32:04;;;;;;;2.50;1.10;;;;;;;19.17;68.87;99105.28;5090452;28;20171;-59
2023/10/30 06:34:32;;;;;;;2.13;0.80;;;;;;;19.16;68.88;99104.47;5093212;28;20269;-58
2023/10/30 06:36:57;;;;;;;4.13;0.83;;;;;;;19.19;68.60;99105.69;5090852;28;20170;-59
2023/10/30 06:39:23;;;;;;;4.20;1.20;;;;;;;19.19;68.57;99102.81;5090812;28;20458;-58
2023/10/30 06:41:48;;;;;;;3.93;1.33;;;;;;;19.19;68.69;99111.41;5092565;28;20186;-59
2023/10/30 06:44:15;;;;;;;2.17;0.90;;;;;;;19.18;68.74;99104.88;5097056;28;20241;-59
2023/10/30 06:46:40;;;;;;;3.87;1.00;;;;;;;19.19;68.79;99114.25;5090636;28;20940;-59
2023/10/30 06:49:06;;;;;;;2.53;0.70;;;;;;;19.19;68.91;99115.09;5091834;28;20430;-59
2023/10/30 06:51:31;;;;;;;2.67;1.00;;;;;;;19.21;68.65;99117.53;5102244;28;20174;-59
2023/10/30 06:53:57;;;;;;;3.77;1.20;;;;;;;19.17;68.83;99100.38;5109068;28;20247;-59
2023/10/30 06:56:22;;;;;;;3.33;0.90;;;;;;;19.20;68.89;99105.28;5127502;27;20521;-59
2023/10/30 06:58:48;;;;;;;2.80;0.87;;;;;;;19.19;68.60;99094.22;5102784;27;20253;-59
2023/10/30 07:01:13;;;;;;;2.03;0.80;;;;;;;19.19;68.94;99109.38;5091447;28;20202;-59
2023/10/30 07:03:39;;;;;;;2.03;0.90;;;;;;;19.19;68.96;99108.53;5089021;28;20250;-58
2023/10/30 07:06:04;;;;;;;3.40;1.17;;;;;;;19.17;68.86;99097.50;5088326;28;20232;-59
2023/10/30 07:08:30;;;;;;;1.60;0.60;;;;;;;19.22;68.67;99108.56;5090777;28;20637;-59
2023/10/30 07:10:55;;;;;;;1.60;0.80;;;;;;;19.21;68.57;99112.63;5089100;28;20210;-59
2023/10/30 07:13:21;;;;;;;4.43;1.20;;;;;;;19.22;68.67;99114.28;5090466;28;20167;-59
2023/10/30 07:15:47;;;;;;;1.90;0.80;;;;;;;19.22;68.58;99102.84;5092385;28;20182;-59
2023/10/30 07:18:12;;;;;;;2.93;1.30;;;;;;;19.18;68.77;99099.16;5090951;28;20442;-58
2023/10/30 07:20:38;;;;;;;2.50;1.00;;;;;;;19.22;68.82;99102.84;5104192;28;20225;-59
2023/10/30 07:23:03;;;;;;;2.40;1.10;;;;;;;19.20;68.84;99093.81;5097152;28;20197;-58
2023/10/30 07:25:29;;;;;;;4.33;1.20;;;;;;;19.21;68.78;99106.09;5110283;28;20184;-59
2023/10/30 07:27:54;;;;;;;3.43;0.90;;;;;;;19.22;68.89;99114.28;5110357;28;20597;-58
2023/10/30 07:30:19;;;;;;;2.50;0.80;;;;;;;19.21;68.58;99112.63;5104526;28;20316;-59
2023/10/30 07:32:45;;;;;;;2.70;1.00;;;;;;;19.22;68.63;99120.00;5094620;28;20182;-58
2023/10/30 07:35:11;;;;;;;2.93;1.07;;;;;;;19.21;69.05;99118.34;5107225;28;20173;-59
2023/10/30 07:37:36;;;;;;;2.20;1.10;;;;;;;19.24;68.70;99145.34;5106132;28;20185;-58
2023/10/30 07:40:05;;;;;;;2.60;0.93;;;;;;;19.22;68.64;99151.47;5100750;28;20558;-59
2023/10/30 07:42:31;;;;;;;2.60;1.00;;;;;;;19.24;68.69;99168.22;5090860;28;20191;-60
2023/10/30 07:44:56;;;;;;;2.00;0.90;;;;;;;19.23;68.64;99153.13;5108949;28;20464;-63
2023/10/30 07:47:22;;;;;;;2.90;0.97;;;;;;;19.24;68.71;99157.63;5094239;28;20186;-64
2023/10/30 07:49:47;;;;;;;2.00;0.80;;;;;;;19.24;68.80;99151.91;5086996;28;20174;-65
2023/10/30 07:52:13;;;;;;;3.60;0.97;;;;;;;19.23;68.94;99132.28;5086828;28;20569;-64
2023/10/30 07:54:39;;;;;;;2.03;0.70;;;;;;;19.23;69.10;99117.97;5109209;27;20180;-63
2023/10/30 07:57:04;;;;;;;2.13;0.90;;;;;;;19.22;68.71;99122.84;5091318;28;20518;-64
2023/10/30 07:59:32;;;;;;;2.00;1.03;;;;;;;19.24;68.63;99126.13;5089684;28;20869;-64
2023/10/30 08:01:58;;;;;;;2.67;1.10;;;;;;;19.23;68.79;99115.09;5086918;28;20631;-64
2023/10/30 08:04:23;;;;;;;2.80;1.10;;;;;;;19.24;68.94;99093.84;5088755;28;20428;-64
2023/10/30 08:06:48;;;;;;;2.30;0.80;;;;;;;19.26;68.74;99091.41;5089499;28;20182;-64
2023/10/30 08:09:15;;;;;;;2.00;0.70;;;;;;;19.23;69.22;99095.06;5090459;28;20194;-64
2023/10/30 08:11:42;;;;;;;4.03;0.90;;;;;;;19.24;68.94;99093.84;5105464;28;20578;-64
2023/10/30 08:14:07;;;;;;;2.70;0.80;;;;;;;19.23;68.76;99095.91;5110113;28;20419;-64
2023/10/30 08:16:34;;;;;;;2.20;0.77;;;;;;;19.24;68.71;99103.25;5106672;28;20404;-63
2023/10/30 08:19:00;;;;;;;3.80;1.10;;;;;;;19.25;68.67;99110.59;5104021;28;20638;-63
2023/10/30 08:21:26;;;;;;;2.70;1.13;;;;;;;19.25;69.02;99109.78;5108160;28;20478;-64
2023/10/30 08:23:51;;;;;;;2.00;0.80;;;;;;;19.25;68.80;99106.91;5109793;28;20552;-63
2023/10/30 08:26:16;;;;;;;1.73;0.83;;;;;;;19.25;68.68;99106.91;5094280;28;20198;-64
2023/10/30 08:28:44;;;;;;;2.30;0.97;;;;;;;19.24;68.83;99105.28;5109294;28;20188;-63
2023/10/30 08:31:10;;;;;;;2.07;0.80;;;;;;;19.26;69.40;99108.56;5109588;28;20252;-64
2023/10/30 08:33:36;;;;;;;3.17;0.80;;;;;;;19.27;68.85;99116.72;5106085;28;20502;-64
2023/10/30 08:36:01;;;;;;;1.60;0.80;;;;;;;19.25;68.76;99104.88;5105463;28;20177;-63
2023/10/30 08:38:26;;;;;;;3.27;0.77;;;;;;;19.27;68.68;99107.31;5104914;28;20192;-63
2023/10/30 08:40:52;;;;;;;2.47;0.80;;;;;;;19.25;68.86;99099.16;5106969;28;20185;-64
2023/10/30 08:43:17;;;;;;;1.97;0.70;;;;;;;19.27;68.62;99105.25;5106404;28;20189;-64
2023/10/30 08:45:43;;;;;;;2.47;0.80;;;;;;;19.26;68.80;99089.31;5104376;28;20169;-64
2023/10/30 08:48:10;;;;;;;1.60;0.70;;;;;;;19.27;68.57;99090.16;5086231;28;20178;-64
2023/10/30 08:50:36;;;;;;;1.80;0.90;;;;;;;19.28;68.71;99101.19;5085943;28;20178;-64
2023/10/30 08:53:01;;;;;;;1.83;0.60;;;;;;;19.28;68.92;99088.91;5098133;28;20488;-64
2023/10/30 08:55:26;;;;;;;1.70;0.70;;;;;;;19.27;69.21;99090.16;5110232;28;20535;-62
2023/10/30 08:57:52;;;;;;;2.03;0.90;;;;;;;19.28;68.93;99084.03;5107364;28;20178;-63
2023/10/30 09:00:17;;;;;;;2.30;1.10;;;;;;;19.27;68.96;99068.06;5101328;28;20200;-64
2023/10/30 09:02:43;;;;;;;2.03;0.87;;;;;;;19.27;68.52;99068.06;5093927;28;20198;-64
2023/10/30 09:05:09;;;;;;;1.97;0.80;;;;;;;19.29;68.63;99068.47;5094965;28;20551;-64
2023/10/30 09:07:34;;;;;;;2.30;1.00;;;;;;;19.28;68.59;99060.31;5092657;28;20181;-64
2023/10/30 09:10:00;;;;;;;2.10;0.80;;;;;;;19.30;68.45;99054.97;5092582;28;20649;-64
2023/10/30 09:12:25;;;;;;;2.73;1.00;;;;;;;19.29;68.73;99057.03;5092430;28;20205;-64
2023/10/30 09:14:52;;;;;;;2.13;0.70;;;;;;;19.27;68.83;99048.03;5094663;28;20193;-64
2023/10/30 09:17:18;;;;;;;1.87;0.93;;;;;;;19.31;68.47;99054.56;5100247;28;20186;-64
2023/10/30 09:19:43;;;;;;;2.33;1.00;;;;;;;19.31;68.67;99060.28;5093146;28;20482;-63
2023/10/30 09:22:09;;;;;;;2.13;0.87;;;;;;;19.31;68.63;99056.63;5090822;28;20631;-63
2023/10/30 09:24:34;;;;;;;2.37;0.80;;;;;;;19.30;68.65;99040.66;5091284;28;20604;-63
2023/10/30 09:26:59;;;;;;;2.17;0.90;;;;;;;19.30;68.85;99044.34;5093047;28;20183;-63
2023/10/30 09:29:25;;;;;;;1.70;0.70;;;;;;;19.32;68.63;99039.00;5090612;28;20181;-65
2023/10/30 09:31:50;;;;;;;3.47;0.90;;;;;;;19.31;68.66;99043.09;5091545;28;20182;-64
2023/10/30 09:34:16;;;;;;;1.90;0.93;;;;;;;19.32;68.76;99036.16;5091726;28;20646;-64
2023/10/30 09:36:42;;;;;;;2.43;0.90;;;;;;;19.32;68.66;99049.66;5099451;28;20198;-64
2023/10/30 09:39:07;;;;;;;1.83;0.80;;;;;;;19.31;68.49;99037.38;5098191;28;20185;-64
2023/10/30 09:41:36;;;;;;;2.03;0.80;;;;;;;19.31;68.40;99036.59;5110072;28;20198;-63
2023/10/30 09:44:02;;;;;;;1.70;0.70;;;;;;;19.31;68.69;99030.88;5106035;28;20193;-64
2023/10/30 09:46:28;;;;;;;2.43;1.03;;;;;;;19.31;68.78;99033.72;5089145;28;20420;-65
2023/10/30 09:48:53;;;;;;;2.50;0.90;;;;;;;19.31;68.47;99028.81;5088720;28;20393;-64
2023/10/30 09:51:19;;;;;;;3.23;1.10;;;;;;;19.31;68.48;99025.94;5073884;28;20194;-65
2023/10/30 09:53:45;;;;;;;1.80;0.63;;;;;;;19.32;68.60;99015.31;5102349;28;20188;-63
2023/10/30 09:56:10;;;;;;;2.57;0.80;;;;;;;19.32;68.51;98998.94;5094889;27;20432;-62
2023/10/30 09:58:39;;;;;;;2.03;0.67;;;;;;;19.32;68.57;98990.38;5090261;28;20232;-65
2023/10/30 10:01:05;;;;;;;3.40;0.93;;;;;;;19.31;68.57;98988.75;5100368;28;20645;-64
2023/10/30 10:03:30;;;;;;;2.27;0.80;;;;;;;19.31;68.72;98980.16;5091768;28;20430;-63
2023/10/30 10:05:56;;;;;;;1.87;1.00;;;;;;;19.33;68.66;98983.44;5097092;28;20185;-63
2023/10/30 10:08:22;;;;;;;2.73;0.90;;;;;;;19.33;68.84;98969.13;5111030;28;20174;-64
2023/10/30 10:10:55;;;;;;;1.97;0.83;;;;;;;19.33;68.61;98974.84;5099727;28;20845;-64
2023/10/30 10:13:21;;;;;;;2.30;0.80;;;;;;;19.32;68.59;98987.50;5111230;27;20411;-64
2023/10/30 10:15:47;;;;;;;2.90;0.97;;;;;;;19.33;68.72;98983.44;5121439;27;20910;-59
2023/10/30 10:18:28;;;;;;;1.60;0.70;;;;;;;19.33;68.75;98968.28;5131996;27;20419;-58
2023/10/30 10:20:59;;;;;;;3.00;1.00;;;;;;;19.33;68.88;98971.16;5113636;27;20714;-59
2023/10/30 10:23:25;;;;;;;1.83;0.80;;;;;;;19.33;68.67;98966.25;5109973;27;20511;-59
2023/10/30 10:25:57;;;;;;;1.70;0.77;;;;;;;19.34;68.62;98962.16;5132397;27;20745;-59
2023/10/30 10:28:23;;;;;;;2.27;0.90;;;;;;;19.33;68.76;98954.81;5123152;27;20466;-59
2023/10/30 10:30:50;;;;;;;3.70;0.80;;;;;;;19.32;68.82;98947.44;5113186;27;20427;-58
2023/10/30 10:33:15;;;;;;;1.97;0.70;;;;;;;19.34;68.58;98941.31;5129819;27;20419;-59
2023/10/30 10:35:41;;;;;;;1.60;0.70;;;;;;;19.34;68.95;98942.13;5111535;27;20941;-58
2023/10/30 10:38:08;;;;;;;1.97;0.70;;;;;;;19.34;68.58;98939.25;5129799;27;20612;-59
2023/10/30 10:40:34;;;;;;;1.80;0.70;;;;;;;19.35;68.61;98934.34;5122449;27;20442;-58
2023/10/30 10:43:00;;;;;;;2.30;0.90;;;;;;;19.35;68.57;98920.03;5109360;28;20807;-59
2023/10/30 10:45:25;;;;;;;1.80;0.77;;;;;;;19.34;68.80;98918.41;5109311;28;20307;-59
2023/10/30 10:47:52;;;;;;;3.43;1.00;;;;;;;19.31;68.92;98914.34;5109367;28;20166;-59
2023/10/30 10:50:18;;;;;;;2.87;0.90;;;;;;;19.33;68.88;98909.03;5120623;27;20181;-59
2023/10/30 10:52:43;;;;;;;2.30;0.97;;;;;;;19.35;68.59;98905.72;5118748;27;20483;-59
2023/10/30 10:55:09;;;;;;;2.37;0.93;;;;;;;19.34;68.43;98901.25;5139278;27;20169;-59
2023/10/30 10:57:51;;;;;;;1.80;0.70;;;;;;;19.35;68.24;98897.97;5152497;27;20184;-58
2023/10/30 11:00:17;;;;;;;1.73;0.97;;;;;;;19.33;68.71;98903.31;5097043;27;20443;-59
2023/10/30 11:02:44;;;;;;;2.27;0.70;;;;;;;19.34;68.75;98901.25;5092750;28;20843;-59
2023/10/30 11:05:10;;;;;;;2.03;0.70;;;;;;;19.33;68.56;98900.44;5105861;27;20191;-59
2023/10/30 11:07:51;;;;;;;4.07;0.90;;;;;;;19.35;68.75;98891.41;5119595;27;20415;-59
2023/10/30 11:10:23;;;;;;;1.63;0.70;;;;;;;19.35;68.42;98877.94;5100364;27;20504;-59
2023/10/30 11:13:08;;;;;;;1.53;0.67;;;;;;;19.36;68.50;98876.69;5092424;28;20435;-59
2023/10/30 11:15:36;;;;;;;2.63;0.90;;;;;;;19.35;68.29;98875.06;5110262;27;20765;-60
2023/10/30 11:18:15;;;;;;;1.63;0.70;;;;;;;19.36;68.91;98879.56;5092452;28;20464;-59
2023/10/30 11:21:11;;;;;;;2.43;0.70;;;;;;;19.34;68.65;98869.75;5119122;27;20512;-59
2023/10/30 11:23:53;;;;;;;2.27;0.80;;;;;;;19.37;68.24;98858.28;5120280;27;20508;-61
2023/10/30 11:26:30;;;;;;;4.03;1.10;;;;;;;19.38;68.32;98854.22;5113900;27;20439;-60
2023/10/30 11:29:17;;;;;;;2.07;0.80;;;;;;;19.36;68.30;98855.84;5111887;27;20419;-59